| time (UTC) | temp F | wind direction | speed MPH | gust MPH | rain 1hr in | rain 24hr in | rain mn in | humidity % | barometer mb |
| 20260509201540 | 61 | 175 | 7.0 | 14.0 | 0.00 | 0.73 | 0.56 | 70 | 1006.0 |
| 20260509200038 | 61 | 182 | 5.0 | 12.0 | 0.00 | 0.73 | 0.56 | 76 | 1006.2 |
| 20260509194535 | 60 | 172 | 4.0 | 9.0 | 0.00 | 0.75 | 0.56 | 78 | 1006.2 |
| 20260509193036 | 59 | 198 | 5.0 | 10.0 | 0.00 | 0.75 | 0.56 | 78 | 1006.5 |
| 20260509191550 | 58 | 176 | 4.0 | 13.0 | 0.00 | 0.75 | 0.56 | 82 | 1006.8 |
| 20260509190035 | 57 | 155 | 4.0 | 15.0 | 0.00 | 0.75 | 0.56 | 86 | 1006.7 |
| 20260509184545 | 56 | 146 | 3.0 | 11.0 | 0.00 | 0.75 | 0.56 | 89 | 1006.9 |
| 20260509183047 | 55 | 186 | 3.0 | 7.0 | 0.00 | 0.75 | 0.56 | 91 | 1006.9 |
| 20260509181536 | 54 | 205 | 3.0 | 8.0 | 0.01 | 0.75 | 0.56 | 92 | 1007.1 |
| 20260509180035 | 54 | 184 | 3.0 | 7.0 | 0.01 | 0.75 | 0.56 | 97 | 1007.2 |
| 20260509174538 | 52 | 167 | 2.0 | 5.0 | 0.01 | 0.75 | 0.56 | 96 | 1007.3 |
| 20260509173042 | 52 | 173 | 3.0 | 7.0 | 0.01 | 0.75 | 0.56 | 97 | 1007.3 |
| 20260509171535 | 51 | 199 | 3.0 | 6.0 | 0.00 | 0.74 | 0.55 | 97 | 1007.3 |
| 20260509170035 | 51 | 200 | 2.0 | 6.0 | 0.00 | 0.74 | 0.55 | 97 | 1007.4 |
| 20260509164535 | 51 | 206 | 3.0 | 9.0 | 0.00 | 0.74 | 0.55 | 97 | 1007.3 |
| 20260509163041 | 50 | 213 | 3.0 | 8.0 | 0.00 | 0.74 | 0.55 | 98 | 1007.2 |
| 20260509161536 | 50 | 172 | 3.0 | 8.0 | 0.01 | 0.74 | 0.55 | 98 | 1007.1 |
| 20260509160036 | 50 | 194 | 3.0 | 6.0 | 0.01 | 0.74 | 0.55 | 98 | 1007.0 |
| 20260509154535 | 50 | 180 | 3.0 | 6.0 | 0.01 | 0.74 | 0.55 | 98 | 1007.0 |
| 20260509153048 | 49 | 146 | 2.0 | 5.0 | 0.02 | 0.74 | 0.55 | 98 | 1007.1 |
| 20260509151541 | 49 | 181 | 2.0 | 6.0 | 0.01 | 0.73 | 0.54 | 98 | 1007.1 |
| 20260509150037 | 49 | 148 | 3.0 | 6.0 | 0.02 | 0.73 | 0.54 | 98 | 1007.1 |
| 20260509144536 | 49 | 166 | 2.0 | 7.0 | 0.02 | 0.73 | 0.54 | 98 | 1007.0 |
| 20260509143035 | 48 | 181 | 2.0 | 6.0 | 0.01 | 0.72 | 0.52 | 98 | 1007.1 |
| 20260509141535 | 48 | 147 | 1.0 | 5.0 | 0.01 | 0.72 | 0.52 | 98 | 1007.1 |
| 20260509140036 | 48 | 156 | 3.0 | 6.0 | 0.01 | 0.71 | 0.52 | 98 | 1007.3 |
| 20260509134537 | 48 | 180 | 2.0 | 9.0 | 0.02 | 0.71 | 0.52 | 98 | 1007.2 |
| 20260509133037 | 47 | 165 | 1.0 | 4.0 | 0.02 | 0.71 | 0.52 | 98 | 1007.1 |
| 20260509131535 | 47 | 153 | 2.0 | 7.0 | 0.02 | 0.71 | 0.52 | 98 | 1007.2 |
| 20260509130040 | 47 | 142 | 2.0 | 6.0 | 0.01 | 0.70 | 0.51 | 98 | 1007.2 |
| 20260509124541 | 47 | 124 | 2.0 | 4.0 | 0.00 | 0.69 | 0.50 | 98 | 1007.5 |
| 20260509123036 | 46 | 137 | 2.0 | 6.0 | 0.01 | 0.69 | 0.50 | 98 | 1007.7 |
| 20260509121535 | 46 | 121 | 1.0 | 6.0 | 0.02 | 0.69 | 0.50 | 98 | 1007.6 |
| 20260509120036 | 46 | 115 | 2.0 | 4.0 | 0.05 | 0.69 | 0.50 | 98 | 1007.6 |
| 20260509114535 | 46 | 131 | 1.0 | 2.0 | 0.07 | 0.69 | 0.50 | 98 | 1007.6 |
| 20260509113050 | 46 | 0 | 0.0 | 2.0 | 0.09 | 0.68 | 0.49 | 98 | 1007.7 |
| 20260509111539 | 46 | 0 | 1.0 | 4.0 | 0.11 | 0.66 | 0.47 | 98 | 1007.6 |
| 20260509110037 | 46 | 124 | 4.0 | 7.0 | 0.11 | 0.64 | 0.45 | 98 | 1007.5 |
| 20260509104537 | 46 | 117 | 3.0 | 6.0 | 0.11 | 0.61 | 0.42 | 98 | 1007.4 |
| 20260509103043 | 46 | 124 | 4.0 | 10.0 | 0.10 | 0.58 | 0.40 | 98 | 1007.5 |
| 20260509101554 | 46 | 127 | 3.0 | 6.0 | 0.07 | 0.55 | 0.36 | 98 | 1007.7 |
| 20260509100040 | 45 | 130 | 1.0 | 6.0 | 0.08 | 0.52 | 0.34 | 98 | 1007.7 |
| 20260509094539 | 45 | 148 | 2.0 | 6.0 | 0.07 | 0.51 | 0.31 | 98 | 1007.9 |
| 20260509093038 | 45 | 130 | 3.0 | 7.0 | 0.09 | 0.50 | 0.30 | 98 | 1008.0 |
| 20260509091536 | 45 | 124 | 3.0 | 4.0 | 0.10 | 0.49 | 0.29 | 98 | 1008.0 |
| 20260509090040 | 45 | 117 | 3.0 | 4.0 | 0.10 | 0.46 | 0.26 | 97 | 1008.1 |
| 20260509084545 | 45 | 121 | 2.0 | 7.0 | 0.07 | 0.43 | 0.23 | 98 | 1008.3 |
| 20260509083050 | 45 | 155 | 3.0 | 6.0 | 0.06 | 0.41 | 0.21 | 98 | 1008.4 |
| 20260509081537 | 45 | 109 | 2.0 | 4.0 | 0.04 | 0.39 | 0.19 | 98 | 1008.3 |
| 20260509080039 | 45 | 119 | 2.0 | 3.0 | 0.01 | 0.36 | 0.16 | 97 | 1008.1 |
| 20260509074541 | 45 | 123 | 1.0 | 3.0 | 0.05 | 0.36 | 0.16 | 97 | 1008.0 |
| 20260509073038 | 45 | 137 | 1.0 | 3.0 | 0.06 | 0.35 | 0.15 | 97 | 1008.1 |
| 20260509071544 | 45 | 123 | 2.0 | 3.0 | 0.07 | 0.35 | 0.15 | 97 | 1008.1 |
| 20260509070037 | 45 | 89 | 1.0 | 2.0 | 0.07 | 0.35 | 0.15 | 97 | 1007.9 |
| 20260509064536 | 45 | 132 | 3.0 | 6.0 | 0.04 | 0.31 | 0.11 | 97 | 1008.6 |
| 20260509063035 | 45 | 106 | 2.0 | 3.0 | 0.03 | 0.29 | 0.09 | 97 | 1008.7 |
| 20260509061543 | 45 | 121 | 1.0 | 2.0 | 0.04 | 0.28 | 0.08 | 97 | 1009.0 |
| 20260509060047 | 45 | 137 | 1.0 | 2.0 | 0.05 | 0.28 | 0.08 | 97 | 1009.3 |
| 20260509054536 | 45 | 113 | 1.0 | 4.0 | 0.05 | 0.27 | 0.07 | 97 | 1009.5 |
| 20260509053101 | 45 | 126 | 2.0 | 7.0 | 0.04 | 0.26 | 0.06 | 97 | 1009.8 |
| 20260509051542 | 45 | 135 | 2.0 | 4.0 | 0.03 | 0.24 | 0.04 | 97 | 1010.0 |
| 20260509050043 | 45 | 129 | 2.0 | 4.0 | 0.03 | 0.23 | 0.03 | 96 | 1010.1 |
| 20260509044555 | 45 | 122 | 1.0 | 3.0 | 0.02 | 0.22 | 0.02 | 96 | 1010.1 |
| 20260509043041 | 45 | 132 | 1.0 | 3.0 | 0.03 | 0.22 | 0.02 | 96 | 1010.3 |
| 20260509041536 | 45 | 129 | 2.0 | 4.0 | 0.03 | 0.21 | 0.01 | 96 | 1010.4 |
| 20260509040041 | 45 | 118 | 2.0 | 4.0 | 0.04 | 0.20 | 0.00 | 96 | 1010.6 |
| 20260509034540 | 45 | 145 | 1.0 | 4.0 | 0.04 | 0.20 | 0.20 | 96 | 1010.7 |
| 20260509033038 | 45 | 123 | 2.0 | 2.0 | 0.04 | 0.19 | 0.19 | 96 | 1010.8 |
| 20260509031553 | 46 | 128 | 1.0 | 3.0 | 0.04 | 0.18 | 0.18 | 95 | 1010.9 |
| 20260509030056 | 46 | 196 | 1.0 | 3.0 | 0.03 | 0.16 | 0.16 | 96 | 1011.3 |
| 20260509024540 | 46 | 141 | 0.0 | 2.0 | 0.05 | 0.16 | 0.16 | 95 | 1011.1 |
| 20260509023040 | 46 | 0 | 0.0 | 2.0 | 0.04 | 0.15 | 0.15 | 95 | 1011.0 |
| 20260509021540 | 46 | 103 | 1.0 | 3.0 | 0.04 | 0.14 | 0.14 | 95 | 1010.7 |
| 20260509020040 | 46 | 137 | 0.0 | 2.0 | 0.03 | 0.13 | 0.13 | 94 | 1010.9 |
| 20260509014536 | 46 | 0 | 0.0 | 0.0 | 0.02 | 0.11 | 0.11 | 94 | 1010.8 |
| 20260509013035 | 46 | 0 | 0.0 | 2.0 | 0.04 | 0.11 | 0.11 | 93 | 1010.5 |
| 20260509011535 | 46 | 0 | 1.0 | 3.0 | 0.04 | 0.10 | 0.10 | 93 | 1010.2 |
| 20260509010036 | 46 | 0 | 0.0 | 1.0 | 0.05 | 0.10 | 0.10 | 91 | 1010.2 |
| 20260509004548 | 47 | 0 | 0.0 | 3.0 | 0.05 | 0.09 | 0.09 | 90 | 1010.2 |
| 20260509003041 | 47 | 202 | 2.0 | 4.0 | 0.03 | 0.07 | 0.07 | 89 | 1010.6 |
| 20260509001535 | 48 | 217 | 0.0 | 3.0 | 0.02 | 0.06 | 0.06 | 85 | 1009.9 |
| 20260509000041 | 49 | 206 | 2.0 | 4.0 | 0.00 | 0.04 | 0.04 | 81 | 1009.8 |
| 20260508234538 | 50 | 215 | 1.0 | 5.0 | 0.00 | 0.04 | 0.04 | 77 | 1009.9 |
| 20260508233039 | 51 | 207 | 3.0 | 7.0 | 0.00 | 0.04 | 0.04 | 76 | 1009.7 |
| 20260508231533 | 51 | 196 | 4.0 | 8.0 | 0.00 | 0.04 | 0.04 | 75 | 1009.5 |
| 20260508230039 | 51 | 155 | 3.0 | 5.0 | 0.00 | 0.04 | 0.04 | 76 | 1009.6 |
| 20260508224548 | 51 | 198 | 3.0 | 8.0 | 0.01 | 0.04 | 0.04 | 79 | 1009.7 |
| 20260508223047 | 51 | 209 | 3.0 | 9.0 | 0.01 | 0.04 | 0.04 | 79 | 1009.8 |
| 20260508221536 | 51 | 168 | 4.0 | 7.0 | 0.01 | 0.04 | 0.04 | 81 | 1009.5 |
| 20260508220044 | 51 | 198 | 1.0 | 6.0 | 0.01 | 0.04 | 0.04 | 82 | 1009.5 |
| 20260508214535 | 52 | 183 | 3.0 | 11.0 | 0.00 | 0.03 | 0.03 | 79 | 1009.5 |
| 20260508213035 | 53 | 225 | 5.0 | 9.0 | 0.00 | 0.03 | 0.03 | 73 | 1009.6 |
| 20260508211539 | 53 | 209 | 4.0 | 11.0 | 0.00 | 0.03 | 0.03 | 76 | 1009.4 |
| 20260508210042 | 53 | 250 | 4.0 | 11.0 | 0.00 | 0.03 | 0.03 | 79 | 1009.5 |
| 20260508204538 | 53 | 174 | 4.0 | 12.0 | 0.00 | 0.03 | 0.03 | 77 | 1009.5 |
| 20260508203041 | 53 | 211 | 6.0 | 10.0 | 0.02 | 0.03 | 0.03 | 82 | 1009.3 |